Time;durP1;ratioP1;P1;durP2;ratioP2;P2;SDS_P1;SDS_P2;PMS_P1;PMS_P2;Temp;Humidity;BMP_temperature;BMP_pressure;BME280_temperature;BME280_humidity;BME280_pressure;Samples;Min_cycle;Max_cycle;Signal;HPM_P1;HPM_P2
2022/09/15 00:01:39;;;;;;;11.70;5.65;;;17.70;99.90;;;;;;5014990;28;20033;-58
2022/09/15 00:04:05;;;;;;;10.77;5.47;;;17.70;99.90;;;;;;5014851;28;20026;-58
2022/09/15 00:06:32;;;;;;;13.27;5.78;;;17.70;99.90;;;;;;5015076;28;20393;-58
2022/09/15 00:08:58;;;;;;;11.43;6.22;;;17.80;99.90;;;;;;5015193;28;20030;-58
2022/09/15 00:11:27;;;;;;;15.70;5.60;;;17.80;99.90;;;;;;5015270;28;20439;-58
2022/09/15 00:13:55;;;;;;;10.23;5.40;;;17.90;99.90;;;;;;5015063;28;20026;-58
2022/09/15 00:16:25;;;;;;;12.10;5.13;;;17.80;99.90;;;;;;5015023;28;20488;-58
2022/09/15 00:18:51;;;;;;;8.77;4.75;;;17.80;99.90;;;;;;5015269;28;20034;-58
2022/09/15 00:21:22;;;;;;;12.73;4.30;;;17.70;99.90;;;;;;5015036;28;20101;-58
2022/09/15 00:23:49;;;;;;;15.88;5.40;;;17.60;99.90;;;;;;5014856;28;20092;-58
2022/09/15 00:26:17;;;;;;;14.57;6.25;;;17.70;99.90;;;;;;5015132;28;20056;-58
2022/09/15 00:28:44;;;;;;;15.68;7.95;;;17.70;99.90;;;;;;5014968;28;20052;-58
2022/09/15 00:31:13;;;;;;;14.95;8.02;;;17.70;99.90;;;;;;5014973;28;20030;-58
2022/09/15 00:33:40;;;;;;;17.20;6.63;;;17.70;99.90;;;;;;5015064;28;20037;-58
2022/09/15 00:36:08;;;;;;;16.77;5.90;;;17.70;99.90;;;;;;5014816;28;20111;-58
2022/09/15 00:38:36;;;;;;;11.90;5.78;;;17.70;99.90;;;;;;5014713;28;20034;-58
2022/09/15 00:41:02;;;;;;;13.50;5.47;;;17.80;99.90;;;;;;5014822;28;20069;-58
2022/09/15 00:43:55;;;;;;;11.82;4.55;;;17.90;99.90;;;;;;5015170;28;20114;-58
2022/09/15 00:46:24;;;;;;;8.38;4.28;;;17.90;99.90;;;;;;5015020;28;20041;-58
2022/09/15 00:49:28;;;;;;;14.02;5.45;;;17.80;99.90;;;;;;5014862;28;20037;-58
2022/09/15 00:52:06;;;;;;;8.63;4.80;;;17.90;99.90;;;;;;5005280;28;20100;-58
2022/09/15 00:55:03;;;;;;;11.35;4.28;;;17.80;99.90;;;;;;5014789;28;20084;-58
2022/09/15 00:57:35;;;;;;;8.85;4.88;;;17.80;99.90;;;;;;5014664;28;20022;-58
2022/09/15 01:00:09;;;;;;;11.60;4.90;;;17.90;99.90;;;;;;5014720;28;20065;-58
2022/09/15 01:02:36;;;;;;;10.88;4.78;;;17.80;99.90;;;;;;5014771;28;20113;-58
2022/09/15 01:05:06;;;;;;;8.32;4.32;;;17.60;99.90;;;;;;5014578;28;20052;-58
2022/09/15 01:07:43;;;;;;;9.32;4.53;;;17.70;99.90;;;;;;5014668;28;20384;-58
2022/09/15 01:10:25;;;;;;;11.77;4.40;;;17.70;99.90;;;;;;5014767;28;20041;-58
2022/09/15 01:12:55;;;;;;;12.13;4.80;;;17.80;99.90;;;;;;5014355;28;20041;-58
2022/09/15 01:15:28;;;;;;;9.85;4.18;;;17.80;99.90;;;;;;5014613;28;20036;-58
2022/09/15 01:18:23;;;;;;;9.95;4.40;;;17.80;99.90;;;;;;5018569;28;20084;-58
2022/09/15 01:21:23;;;;;;;8.25;4.05;;;17.80;99.90;;;;;;5011408;28;20041;-58
2022/09/15 01:24:09;;;;;;;13.25;4.88;;;17.80;99.90;;;;;;5018415;28;20026;-58
2022/09/15 01:27:11;;;;;;;8.13;4.20;;;17.80;99.90;;;;;;5018331;28;20095;-58
2022/09/15 01:29:46;;;;;;;8.93;4.25;;;17.80;99.90;;;;;;5015857;28;20037;-58
2022/09/15 01:35:34;;;;;;;21.60;5.03;;;17.80;99.90;;;;;;5015635;28;20034;-58
2022/09/15 01:38:47;;;;;;;8.48;4.15;;;17.80;99.90;;;;;;5005736;28;20034;-58
2022/09/15 01:41:15;;;;;;;12.40;4.35;;;17.90;99.90;;;;;;4975243;28;20576;-58
2022/09/15 01:44:09;;;;;;;9.98;4.07;;;17.80;99.90;;;;;;4995962;28;20050;-58
2022/09/15 01:46:47;;;;;;;9.15;3.97;;;17.80;99.90;;;;;;4995852;28;20034;-58
2022/09/15 01:49:19;;;;;;;12.10;4.70;;;17.70;99.90;;;;;;4995861;28;20034;-58
2022/09/15 01:51:49;;;;;;;10.63;3.90;;;17.70;99.90;;;;;;4995493;28;20070;-58
2022/09/15 01:54:19;;;;;;;7.77;4.37;;;17.70;99.90;;;;;;4995787;28;20077;-58
2022/09/15 01:56:45;;;;;;;7.43;3.87;;;17.70;99.90;;;;;;4995652;28;20205;-58
2022/09/15 01:59:11;;;;;;;11.88;3.60;;;17.70;99.90;;;;;;4995789;28;20033;-58
2022/09/15 02:01:58;;;;;;;13.95;4.20;;;17.80;99.90;;;;;;4995360;28;20034;-58
2022/09/15 02:04:45;;;;;;;8.77;3.88;;;17.80;99.90;;;;;;5013827;28;20712;-58
2022/09/15 02:07:43;;;;;;;18.63;4.38;;;17.80;99.90;;;;;;5017723;28;20036;-58
2022/09/15 02:10:36;;;;;;;11.77;4.32;;;17.80;99.90;;;;;;5017606;28;20025;-58
2022/09/15 02:13:22;;;;;;;12.63;4.05;;;17.70;99.90;;;;;;5017550;28;20807;-58
2022/09/15 02:15:55;;;;;;;7.82;4.25;;;17.60;99.90;;;;;;5017319;28;20057;-58
2022/09/15 02:18:34;;;;;;;10.68;3.97;;;17.70;99.90;;;;;;5032634;28;20041;-58
2022/09/15 02:21:36;;;;;;;11.00;4.47;;;17.70;99.90;;;;;;5017175;28;20112;-58
2022/09/15 02:24:10;;;;;;;7.70;3.03;;;17.60;99.90;;;;;;5017224;28;20403;-58
2022/09/15 02:26:39;;;;;;;7.72;3.83;;;17.70;99.90;;;;;;5017161;28;20030;-58
2022/09/15 02:29:10;;;;;;;16.08;4.63;;;17.70;99.90;;;;;;5016396;28;20096;-58
2022/09/15 02:31:38;;;;;;;;;;;17.60;99.90;;;;;;5017262;28;20040;-58
2022/09/15 02:34:13;;;;;;;11.32;5.38;;;17.70;99.90;;;;;;5017070;28;19936;-58
2022/09/15 02:36:41;;;;;;;12.38;4.97;;;17.70;99.90;;;;;;5017116;28;20030;-58
2022/09/15 02:39:11;;;;;;;7.95;4.43;;;17.60;99.90;;;;;;5016872;28;20042;-58
2022/09/15 02:41:38;;;;;;;8.27;4.35;;;17.60;99.90;;;;;;5017009;28;20105;-58
2022/09/15 02:44:04;;;;;;;12.68;4.15;;;17.70;99.90;;;;;;5016776;28;20080;-58
2022/09/15 02:46:30;;;;;;;5.55;3.40;;;17.70;99.90;;;;;;5016723;28;20369;-58
2022/09/15 02:48:56;;;;;;;10.95;3.97;;;17.80;99.90;;;;;;5016931;28;20104;-58
2022/09/15 02:51:22;;;;;;;9.43;3.65;;;17.70;99.90;;;;;;5016471;28;20141;-58
2022/09/15 02:53:48;;;;;;;12.45;4.13;;;17.70;99.90;;;;;;5016710;28;20369;-58
2022/09/15 02:56:15;;;;;;;10.20;3.60;;;17.70;99.90;;;;;;5016767;28;20476;-58
2022/09/15 02:58:42;;;;;;;7.97;3.50;;;17.80;99.90;;;;;;5016467;28;20468;-58
2022/09/15 03:01:13;;;;;;;8.25;4.18;;;17.70;99.90;;;;;;5016694;28;20034;-58
2022/09/15 03:03:40;;;;;;;9.90;3.97;;;17.70;99.90;;;;;;5016617;28;20040;-58
2022/09/15 03:06:20;;;;;;;7.43;3.33;;;17.70;99.90;;;;;;5016483;28;20022;-58
2022/09/15 03:09:00;;;;;;;9.13;3.65;;;17.60;99.90;;;;;;5016516;28;20049;-58
2022/09/15 03:11:27;;;;;;;11.93;3.80;;;17.60;99.90;;;;;;5016399;28;20496;-58
2022/09/15 03:13:56;;;;;;;8.45;3.20;;;17.60;99.90;;;;;;5016545;28;20029;-58
2022/09/15 03:16:22;;;;;;;12.43;3.80;;;17.60;99.90;;;;;;5016325;28;20050;-58
2022/09/15 03:18:48;;;;;;;9.77;3.78;;;17.70;99.90;;;;;;5016303;28;20480;-58
2022/09/15 03:21:16;;;;;;;9.32;3.55;;;17.60;99.90;;;;;;5016233;28;20034;-58
2022/09/15 03:23:42;;;;;;;7.63;3.80;;;17.60;99.90;;;;;;5016339;28;20065;-58
2022/09/15 03:26:09;;;;;;;6.03;3.10;;;17.60;99.90;;;;;;5016196;28;20527;-58
2022/09/15 03:28:37;;;;;;;5.53;3.42;;;17.60;99.90;;;;;;5016023;28;20044;-58
2022/09/15 03:31:03;;;;;;;8.80;3.55;;;17.60;99.90;;;;;;5016035;28;20025;-58
2022/09/15 03:33:29;;;;;;;8.52;3.97;;;17.60;99.90;;;;;;5015945;28;20101;-58
2022/09/15 03:35:56;;;;;;;13.77;4.22;;;17.60;99.90;;;;;;5016016;28;20064;-58
2022/09/15 03:38:22;;;;;;;6.93;3.55;;;17.50;99.90;;;;;;5015746;28;20611;-58
2022/09/15 03:41:03;;;;;;;7.30;3.60;;;17.50;99.90;;;;;;5015820;28;20030;-58
2022/09/15 03:43:31;;;;;;;9.00;4.82;;;17.40;99.90;;;;;;5015790;28;20022;-58
2022/09/15 03:45:58;;;;;;;9.73;3.60;;;17.40;99.90;;;;;;5016214;28;20342;-58
2022/09/15 03:48:24;;;;;;;16.08;4.75;;;17.50;99.90;;;;;;5015560;28;20508;-58
2022/09/15 03:50:51;;;;;;;13.68;4.03;;;17.50;99.90;;;;;;5015425;28;20042;-58
2022/09/15 03:53:17;;;;;;;24.13;6.60;;;17.50;99.90;;;;;;5015656;28;20026;-58
2022/09/15 03:55:44;;;;;;;11.15;5.05;;;17.60;99.90;;;;;;5015768;28;20053;-58
2022/09/15 03:58:13;;;;;;;21.52;5.50;;;17.50;99.90;;;;;;5015603;28;20033;-58
2022/09/15 04:00:40;;;;;;;24.23;5.72;;;17.50;99.90;;;;;;5015519;28;20025;-58
2022/09/15 04:03:07;;;;;;;12.65;3.97;;;17.50;99.90;;;;;;5015369;28;20105;-58
2022/09/15 04:05:33;;;;;;;17.42;4.97;;;17.50;99.90;;;;;;5015460;28;20026;-58
2022/09/15 04:07:59;;;;;;;12.82;4.13;;;17.50;99.90;;;;;;5015347;28;20424;-58
2022/09/15 04:10:25;;;;;;;9.38;3.80;;;17.60;99.90;;;;;;5015338;28;20018;-58
2022/09/15 04:12:51;;;;;;;8.45;3.80;;;17.60;99.90;;;;;;5014920;28;20036;-58
2022/09/15 04:15:19;;;;;;;9.63;3.28;;;17.70;99.90;;;;;;5015265;28;20030;-58
2022/09/15 04:17:46;;;;;;;11.93;3.88;;;17.70;99.90;;;;;;5014927;28;20354;-58
2022/09/15 04:20:12;;;;;;;12.00;3.28;;;17.70;99.90;;;;;;5015279;28;20376;-58
2022/09/15 04:22:38;;;;;;;13.30;3.78;;;17.70;99.90;;;;;;5015129;28;20029;-58
2022/09/15 04:25:05;;;;;;;11.63;3.40;;;17.70;99.90;;;;;;5014985;28;20498;-58
2022/09/15 04:27:34;;;;;;;9.60;3.53;;;17.60;99.90;;;;;;5015071;28;20037;-58
2022/09/15 04:30:00;;;;;;;17.27;4.38;;;17.60;99.90;;;;;;5015110;28;20109;-58
2022/09/15 04:32:28;;;;;;;7.93;3.47;;;17.70;99.90;;;;;;5013712;28;20029;-58
2022/09/15 04:34:54;;;;;;;11.25;4.45;;;17.70;99.90;;;;;;5014974;28;20436;-58
2022/09/15 04:37:21;;;;;;;9.85;3.53;;;17.80;99.90;;;;;;5014658;28;20430;-58
2022/09/15 04:39:47;;;;;;;12.90;4.63;;;17.80;99.90;;;;;;5014815;28;20110;-58
2022/09/15 04:42:14;;;;;;;19.95;4.60;;;17.80;99.90;;;;;;5014871;28;20026;-58
2022/09/15 04:44:40;;;;;;;17.33;5.05;;;17.90;99.90;;;;;;5014871;28;20041;-58
2022/09/15 04:47:06;;;;;;;17.40;4.47;;;17.90;99.90;;;;;;5029917;28;20085;-58
2022/09/15 04:49:32;;;;;;;22.60;4.93;;;17.80;99.90;;;;;;5014724;28;20028;-58
2022/09/15 04:51:58;;;;;;;11.25;4.30;;;17.80;99.90;;;;;;5013993;28;20550;-58
2022/09/15 04:54:24;;;;;;;16.05;5.00;;;17.80;99.90;;;;;;5014636;28;20395;-58
2022/09/15 04:56:50;;;;;;;15.18;6.70;;;17.80;99.90;;;;;;5014988;28;20045;-58
2022/09/15 04:59:18;;;;;;;13.60;5.68;;;17.90;99.90;;;;;;5014584;28;20111;-58
2022/09/15 05:01:44;;;;;;;11.50;5.18;;;17.90;99.90;;;;;;5014316;28;20030;-58
2022/09/15 05:04:11;;;;;;;16.60;5.78;;;17.90;99.90;;;;;;5014708;28;20062;-58
2022/09/15 05:06:37;;;;;;;12.75;5.00;;;18.00;99.90;;;;;;5014546;28;20022;-58
2022/09/15 05:09:06;;;;;;;15.38;6.28;;;18.00;99.90;;;;;;5014199;28;20061;-58
2022/09/15 05:11:32;;;;;;;18.80;6.45;;;18.10;99.90;;;;;;5014377;28;20041;-58
2022/09/15 05:13:59;;;;;;;12.75;5.68;;;18.20;99.90;;;;;;5014315;28;20064;-58
2022/09/15 05:16:28;;;;;;;13.85;5.22;;;18.20;99.90;;;;;;5014374;28;20029;-58
2022/09/15 05:18:57;;;;;;;14.20;6.07;;;18.30;99.90;;;;;;5014461;28;20030;-58
2022/09/15 05:21:23;;;;;;;17.38;5.10;;;18.20;99.90;;;;;;5014181;28;20072;-58
2022/09/15 05:23:53;;;;;;;14.10;5.05;;;18.20;99.90;;;;;;5014066;28;20472;-58
2022/09/15 05:26:21;;;;;;;16.58;4.25;;;18.20;99.90;;;;;;5012925;28;20113;-58
2022/09/15 05:28:47;;;;;;;15.75;5.10;;;18.20;99.90;;;;;;5014061;28;20510;-58
2022/09/15 05:31:25;;;;;;;19.23;4.25;;;18.30;99.90;;;;;;5013179;28;20116;-58
2022/09/15 05:33:52;;;;;;;20.15;5.35;;;18.40;99.90;;;;;;5012677;28;20400;-58
2022/09/15 05:36:22;;;;;;;25.10;5.85;;;18.40;99.90;;;;;;5013618;28;20033;-58
2022/09/15 05:38:48;;;;;;;12.43;4.75;;;18.40;99.90;;;;;;5014089;28;20349;-58
2022/09/15 05:41:16;;;;;;;14.57;5.18;;;18.50;99.90;;;;;;5013456;28;20404;-58
2022/09/15 05:43:43;;;;;;;16.08;4.93;;;18.50;99.90;;;;;;5014174;28;20041;-58
2022/09/15 05:46:10;;;;;;;16.15;5.05;;;18.60;99.90;;;;;;5014298;28;20030;-58
2022/09/15 05:48:36;;;;;;;12.90;5.07;;;18.50;99.90;;;;;;5013401;28;20037;-58
2022/09/15 05:51:03;;;;;;;19.25;5.72;;;18.60;99.90;;;;;;5009924;28;20046;-58
2022/09/15 05:53:29;;;;;;;16.20;5.40;;;18.70;99.90;;;;;;5013369;28;20415;-58
2022/09/15 05:55:58;;;;;;;20.70;5.68;;;18.70;99.90;;;;;;5013924;28;20030;-58
2022/09/15 05:58:25;;;;;;;17.58;5.78;;;18.80;99.90;;;;;;5013813;28;20539;-58
2022/09/15 06:00:54;;;;;;;16.95;6.05;;;18.80;99.90;;;;;;5013846;28;20017;-58
2022/09/15 06:03:22;;;;;;;12.85;5.65;;;18.90;99.90;;;;;;5015154;28;20029;-58
2022/09/15 06:05:48;;;;;;;18.70;6.00;;;19.00;99.90;;;;;;5016066;28;20026;-58
2022/09/15 06:08:15;;;;;;;22.75;6.43;;;19.10;99.90;;;;;;5015519;28;20476;-58
2022/09/15 06:10:41;;;;;;;22.73;5.85;;;19.00;99.90;;;;;;5017218;28;20030;-58
2022/09/15 06:13:07;;;;;;;22.48;6.30;;;19.10;99.90;;;;;;5012983;28;20027;-58
2022/09/15 06:15:33;;;;;;;12.95;4.78;;;19.20;99.90;;;;;;4997617;28;20030;-58
2022/09/15 06:17:59;;;;;;;27.50;7.80;;;19.30;99.90;;;;;;5011337;28;20435;-58
2022/09/15 06:20:25;;;;;;;23.00;6.13;;;19.30;99.90;;;;;;5015629;28;20037;-59
2022/09/15 06:22:52;;;;;;;21.63;5.95;;;19.40;99.90;;;;;;5028388;28;20045;-58
2022/09/15 06:25:18;;;;;;;24.92;8.10;;;19.50;99.90;;;;;;4997085;28;20413;-58
2022/09/15 06:27:51;;;;;;;28.70;6.63;;;19.60;99.90;;;;;;5004081;28;20037;-59
2022/09/15 06:30:18;;;;;;;34.65;8.45;;;19.70;99.90;;;;;;5006692;28;20063;-59
2022/09/15 06:32:44;;;;;;;30.15;8.20;;;19.80;99.90;;;;;;5016439;28;20041;-59
2022/09/15 06:35:10;;;;;;;23.73;7.45;;;20.00;99.90;;;;;;5016580;28;20113;-59
2022/09/15 06:37:35;;;;;;;42.70;7.82;;;20.00;99.90;;;;;;5015716;28;20025;-59
2022/09/15 06:40:03;;;;;;;39.90;9.18;;;20.20;99.90;;;;;;5016667;28;20033;-58
2022/09/15 06:42:30;;;;;;;22.20;7.15;;;20.30;99.90;;;;;;5015356;28;20084;-59
2022/09/15 06:44:57;;;;;;;35.42;8.18;;;20.30;99.90;;;;;;5031471;28;20034;-59
2022/09/15 06:47:23;;;;;;;37.95;10.63;;;20.50;99.90;;;;;;5013385;28;20061;-59
2022/09/15 06:49:48;;;;;;;38.50;9.82;;;20.60;99.90;;;;;;5015914;28;20037;-58
2022/09/15 06:52:14;;;;;;;29.33;8.93;;;20.80;99.90;;;;;;5016216;28;20053;-59
2022/09/15 06:54:40;;;;;;;31.48;9.18;;;21.00;99.90;;;;;;5016675;28;20483;-58
2022/09/15 06:57:09;;;;;;;37.75;10.15;;;21.30;99.90;;;;;;5015638;28;20022;-59
2022/09/15 06:59:35;;;;;;;39.60;10.70;;;21.50;99.90;;;;;;5013868;28;20057;-58
2022/09/15 07:02:01;;;;;;;28.45;8.65;;;21.80;99.90;;;;;;5016271;28;20052;-59
2022/09/15 07:04:26;;;;;;;43.88;10.30;;;22.00;99.90;;;;;;5016341;28;20041;-59
2022/09/15 07:06:52;;;;;;;31.60;7.63;;;22.10;99.90;;;;;;5016102;28;20399;-59
2022/09/15 07:09:18;;;;;;;37.63;8.50;;;22.20;99.90;;;;;;5016398;28;20034;-59
2022/09/15 07:11:44;;;;;;;35.95;8.00;;;22.20;99.20;;;;;;5016859;28;20045;-59
2022/09/15 07:14:11;;;;;;;29.23;8.10;;;22.30;99.90;;;;;;5013378;28;20121;-59
2022/09/15 07:16:37;;;;;;;33.63;10.13;;;22.20;99.90;;;;;;5015485;28;20050;-59
2022/09/15 07:19:04;;;;;;;29.00;9.48;;;22.30;99.90;;;;;;5015331;28;20053;-59
2022/09/15 07:21:30;;;;;;;37.95;9.35;;;22.30;99.90;;;;;;5013779;28;20068;-59
2022/09/15 07:23:57;;;;;;;26.98;8.88;;;22.20;99.90;;;;;;5013801;28;20026;-59
2022/09/15 07:26:26;;;;;;;28.23;8.75;;;22.20;99.90;;;;;;5015914;28;20365;-59
2022/09/15 07:28:59;;;;;;;32.63;13.57;;;22.00;99.90;;;;;;5016484;28;20030;-59
2022/09/15 07:31:28;;;;;;;41.53;17.30;;;22.00;99.90;;;;;;5016055;28;20033;-59
2022/09/15 07:33:54;;;;;;;43.83;18.17;;;21.90;99.90;;;;;;5016544;28;20058;-58
2022/09/15 07:36:20;;;;;;;45.08;19.08;;;21.80;99.90;;;;;;5015387;28;20112;-58
2022/09/15 07:38:49;;;;;;;41.58;20.02;;;21.60;99.90;;;;;;5013740;28;20026;-58
2022/09/15 07:41:17;;;;;;;42.03;18.42;;;21.60;99.90;;;;;;5016266;28;20165;-58
2022/09/15 07:43:54;;;;;;;35.10;13.43;;;21.40;99.90;;;;;;5014400;28;20067;-58
2022/09/15 07:46:21;;;;;;;25.42;11.38;;;21.30;99.90;;;;;;5014423;28;20038;-58
2022/09/15 07:48:49;;;;;;;32.35;11.82;;;21.10;99.90;;;;;;5013729;28;20038;-58
2022/09/15 07:51:16;;;;;;;28.00;12.68;;;21.10;99.90;;;;;;5013713;28;20056;-58
2022/09/15 07:53:44;;;;;;;30.27;14.55;;;21.00;99.90;;;;;;5015139;28;20428;-58
2022/09/15 07:56:10;;;;;;;28.90;12.57;;;21.10;99.90;;;;;;5015264;28;20054;-58
2022/09/15 07:58:36;;;;;;;29.02;11.57;;;20.90;99.90;;;;;;5015143;28;20038;-58
2022/09/15 08:01:04;;;;;;;26.20;10.40;;;20.80;99.90;;;;;;5015110;28;20072;-58
2022/09/15 08:03:30;;;;;;;25.33;10.32;;;20.70;99.90;;;;;;5014599;28;20045;-58
2022/09/15 08:06:01;;;;;;;16.55;8.90;;;20.70;99.90;;;;;;5015018;28;20021;-58
2022/09/15 08:08:27;;;;;;;15.90;8.80;;;20.70;99.90;;;;;;5009190;28;20061;-58
2022/09/15 08:10:54;;;;;;;16.83;8.00;;;20.60;99.90;;;;;;5010765;28;20030;-58
2022/09/15 08:13:20;;;;;;;19.10;7.40;;;20.60;99.90;;;;;;5014885;28;20041;-58
2022/09/15 08:15:47;;;;;;;18.40;7.28;;;20.60;99.90;;;;;;5014906;28;20022;-58
2022/09/15 08:18:13;;;;;;;15.32;6.38;;;20.70;99.90;;;;;;5013905;28;20030;-58
2022/09/15 08:20:41;;;;;;;18.40;7.00;;;20.80;99.90;;;;;;5012771;28;20021;-59
2022/09/15 08:23:08;;;;;;;15.27;7.97;;;20.70;99.90;;;;;;5012954;28;20041;-59
2022/09/15 08:25:34;;;;;;;21.13;8.27;;;20.90;99.90;;;;;;5012383;28;20034;-59
2022/09/15 08:28:00;;;;;;;22.02;8.80;;;21.00;99.90;;;;;;5013004;28;20068;-59
2022/09/15 08:30:26;;;;;;;20.13;9.45;;;20.90;99.90;;;;;;5011462;28;20121;-59
2022/09/15 08:32:52;;;;;;;17.50;8.90;;;21.00;99.90;;;;;;5010274;28;20495;-59
2022/09/15 08:35:19;;;;;;;22.23;9.18;;;21.00;99.90;;;;;;5013876;28;20141;-59
2022/09/15 08:37:45;;;;;;;20.02;8.88;;;21.10;99.90;;;;;;5012923;28;20017;-59
2022/09/15 08:40:31;;;;;;;23.83;10.45;;;21.20;99.90;;;;;;4995980;28;20105;-59
2022/09/15 08:43:01;;;;;;;20.63;11.40;;;21.30;99.90;;;;;;4999892;28;20104;-59
2022/09/15 08:45:29;;;;;;;;;;;21.30;99.90;;;;;;5014868;28;20029;-59
2022/09/15 08:47:58;;;;;;;27.40;12.77;;;21.40;99.90;;;;;;5014293;28;19913;-59
2022/09/15 08:50:43;;;;;;;25.08;13.65;;;21.50;99.90;;;;;;5029635;28;20038;-59
2022/09/15 08:53:10;;;;;;;31.17;13.38;;;21.70;99.90;;;;;;5014377;28;20022;-59
2022/09/15 08:55:38;;;;;;;26.60;12.68;;;21.80;99.90;;;;;;5014228;28;20420;-59
2022/09/15 08:58:05;;;;;;;27.77;11.27;;;21.90;99.90;;;;;;5014500;28;20026;-59
2022/09/15 09:00:32;;;;;;;28.77;11.63;;;22.20;99.90;;;;;;5014220;28;20022;-59
2022/09/15 09:03:13;;;;;;;31.70;11.75;;;22.40;99.90;;;;;;5014445;28;20112;-59
2022/09/15 09:06:06;;;;;;;26.08;11.57;;;22.50;99.90;;;;;;5014502;28;20045;-59
2022/09/15 09:08:41;;;;;;;23.60;11.73;;;22.80;99.90;;;;;;5014131;28;20036;-59
2022/09/15 09:11:20;;;;;;;25.10;12.40;;;22.90;99.90;;;;;;5013917;28;20444;-59
2022/09/15 09:14:19;;;;;;;24.95;11.65;;;22.80;99.90;;;;;;5014181;28;20165;-59
2022/09/15 09:16:45;;;;;;;29.77;12.55;;;22.90;99.90;;;;;;5014320;28;20030;-59
2022/09/15 09:19:45;;;;;;;25.85;12.20;;;23.00;99.90;;;;;;5014269;28;20032;-59
2022/09/15 09:22:16;;;;;;;22.58;11.77;;;23.10;99.90;;;;;;4993954;28;20435;-59
2022/09/15 09:24:46;;;;;;;24.45;11.07;;;23.30;99.90;;;;;;4994746;28;20041;-59
2022/09/15 09:27:14;;;;;;;20.40;10.60;;;23.40;99.90;;;;;;4994856;28;20045;-59
2022/09/15 09:29:56;;;;;;;23.05;10.73;;;23.40;99.90;;;;;;4994786;28;20085;-59
2022/09/15 09:32:24;;;;;;;22.25;10.93;;;23.50;99.90;;;;;;4994298;28;20030;-59
2022/09/15 09:35:16;;;;;;;22.75;9.38;;;23.70;99.90;;;;;;4994635;28;20026;-59
2022/09/15 09:37:42;;;;;;;18.27;9.57;;;24.00;99.90;;;;;;5003041;28;20030;-59
2022/09/15 09:40:15;;;;;;;17.05;8.80;;;24.20;99.90;;;;;;5018123;28;20029;-59
2022/09/15 09:42:42;;;;;;;20.05;9.02;;;24.30;99.90;;;;;;5011858;28;20026;-60
2022/09/15 09:45:12;;;;;;;22.67;8.95;;;24.50;99.90;;;;;;4998226;28;20079;-59
2022/09/15 09:47:40;;;;;;;20.67;10.43;;;24.60;99.90;;;;;;4998105;28;20034;-59
2022/09/15 09:50:32;;;;;;;20.52;10.00;;;24.70;99.90;;;;;;4997921;28;20065;-59
2022/09/15 09:52:58;;;;;;;19.80;9.50;;;24.60;99.90;;;;;;4998724;28;20035;-59
2022/09/15 09:55:26;;;;;;;28.63;9.10;;;24.50;99.90;;;;;;4998457;28;20496;-59
2022/09/15 09:57:53;;;;;;;16.90;8.77;;;24.50;99.90;;;;;;4998676;28;20026;-60
2022/09/15 10:00:31;;;;;;;19.63;9.18;;;24.70;99.90;;;;;;4998662;28;20026;-59
2022/09/15 10:02:57;;;;;;;21.58;8.95;;;25.00;99.90;;;;;;4998445;28;20114;-59
2022/09/15 10:05:23;;;;;;;14.23;8.05;;;25.30;99.90;;;;;;4998416;28;20105;-59
2022/09/15 10:07:49;;;;;;;25.55;8.82;;;25.50;99.90;;;;;;5000359;28;20114;-59
2022/09/15 10:10:27;;;;;;;24.48;8.82;;;25.90;99.90;;;;;;5017146;28;20032;-59
2022/09/15 10:12:56;;;;;;;21.45;7.45;;;26.20;99.90;;;;;;5017205;28;20064;-59
2022/09/15 10:15:25;;;;;;;27.67;8.90;;;26.40;93.90;;;;;;5017274;28;20069;-60
2022/09/15 10:17:52;;;;;;;37.85;9.55;;;26.70;95.10;;;;;;5016909;28;20168;-60
2022/09/15 10:20:27;;;;;;;22.58;9.10;;;26.80;94.50;;;;;;5012321;28;20026;-60
2022/09/15 10:23:06;;;;;;;22.15;8.07;;;26.90;94.60;;;;;;4997400;28;20076;-59
2022/09/15 10:25:36;;;;;;;13.85;7.20;;;26.90;94.20;;;;;;4997239;28;20531;-59
2022/09/15 10:28:12;;;;;;;13.63;6.60;;;27.10;96.20;;;;;;4997296;28;20031;-60
2022/09/15 10:30:56;;;;;;;31.52;8.27;;;27.10;94.30;;;;;;4997246;28;20049;-60
2022/09/15 10:33:28;;;;;;;26.42;7.03;;;27.10;91.20;;;;;;4998372;28;20155;-60
2022/09/15 10:35:59;;;;;;;15.38;5.70;;;27.50;90.90;;;;;;5016779;28;20061;-60
2022/09/15 10:38:40;;;;;;;25.42;7.55;;;27.70;80.40;;;;;;5016771;28;20029;-59
2022/09/15 10:41:27;;;;;;;13.20;6.13;;;28.20;80.00;;;;;;5016235;28;20030;-59
2022/09/15 10:44:21;;;;;;;14.25;5.35;;;28.50;79.30;;;;;;5016839;28;20101;-60
2022/09/15 10:47:02;;;;;;;13.52;4.68;;;29.10;72.00;;;;;;5015473;28;20036;-60
2022/09/15 10:50:04;;;;;;;31.63;7.70;;;30.00;73.50;;;;;;5015474;28;20342;-60
2022/09/15 10:53:13;;;;;;;21.95;6.53;;;30.70;68.30;;;;;;5016915;28;20045;-60
2022/09/15 10:56:09;;;;;;;10.18;3.72;;;31.20;63.50;;;;;;4988813;28;20152;-60
2022/09/15 10:58:35;;;;;;;12.57;4.10;;;31.80;58.40;;;;;;4992255;28;20044;-57
2022/09/15 11:01:28;;;;;;;7.22;3.67;;;32.40;55.80;;;;;;5032141;28;20116;-59
2022/09/15 11:04:35;;;;;;;17.77;4.80;;;32.80;53.10;;;;;;5016236;28;20041;-57
2022/09/15 11:07:07;;;;;;;16.45;4.07;;;33.10;51.80;;;;;;5016336;28;20029;-58
2022/09/15 11:10:03;;;;;;;20.98;5.28;;;33.20;52.00;;;;;;5015701;28;20041;-58
2022/09/15 11:13:02;;;;;;;23.05;5.13;;;32.80;48.40;;;;;;5015921;28;20083;-58
2022/09/15 11:15:53;;;;;;;41.58;7.43;;;32.40;48.00;;;;;;4996058;28;20065;-58
2022/09/15 11:18:34;;;;;;;15.05;4.57;;;31.50;55.80;;;;;;5016028;28;20117;-58
2022/09/15 11:21:19;;;;;;;10.60;3.78;;;31.60;53.90;;;;;;5015861;28;20025;-58
2022/09/15 11:24:11;;;;;;;16.77;5.07;;;32.00;52.30;;;;;;5015865;28;20088;-58
2022/09/15 11:26:53;;;;;;;13.27;4.70;;;32.20;52.70;;;;;;5016124;28;20033;-58
2022/09/15 11:29:51;;;;;;;10.95;3.70;;;31.90;51.60;;;;;;5015949;28;20026;-58
2022/09/15 11:32:24;;;;;;;7.20;3.42;;;31.70;50.70;;;;;;5015315;28;20028;-58
2022/09/15 11:34:57;;;;;;;11.88;4.20;;;31.10;57.70;;;;;;5015688;28;20093;-58
2022/09/15 11:37:35;;;;;;;18.48;4.25;;;30.50;56.80;;;;;;5015444;28;20555;-58
2022/09/15 11:40:22;;;;;;;6.45;2.90;;;30.30;59.70;;;;;;5015580;28;20032;-60
2022/09/15 11:42:55;;;;;;;10.50;3.10;;;30.10;54.50;;;;;;5015197;28;20057;-60
2022/09/15 11:45:25;;;;;;;16.83;4.30;;;29.80;61.40;;;;;;5015685;28;20057;-58
2022/09/15 11:48:00;;;;;;;14.57;4.15;;;29.40;66.20;;;;;;5014773;28;20113;-58
2022/09/15 11:50:33;;;;;;;10.40;3.15;;;29.30;62.80;;;;;;5015485;28;20040;-58
2022/09/15 11:53:15;;;;;;;9.38;3.60;;;28.90;63.70;;;;;;5015239;28;20436;-58
2022/09/15 11:55:50;;;;;;;7.05;3.53;;;28.80;63.80;;;;;;5015028;28;20550;-58
2022/09/15 11:58:55;;;;;;;10.18;3.38;;;28.70;60.20;;;;;;5015108;28;20069;-58
2022/09/15 12:01:33;;;;;;;17.63;4.55;;;28.80;67.80;;;;;;5013319;28;20500;-58
2022/09/15 12:04:09;;;;;;;15.57;5.63;;;29.00;62.40;;;;;;5003844;28;20089;-58
2022/09/15 12:06:44;;;;;;;16.40;4.97;;;29.10;65.90;;;;;;4995439;28;20400;-58
2022/09/15 12:09:18;;;;;;;10.40;4.22;;;29.00;66.70;;;;;;4995465;28;20089;-58
2022/09/15 12:11:47;;;;;;;37.67;6.22;;;28.90;69.10;;;;;;4995449;28;20038;-58
2022/09/15 12:14:38;;;;;;;40.88;6.72;;;28.80;67.90;;;;;;4995629;28;20433;-58
2022/09/15 12:17:07;;;;;;;26.13;6.38;;;28.70;71.00;;;;;;4994491;28;20054;-58
2022/09/15 12:19:32;;;;;;;13.13;4.72;;;28.50;65.60;;;;;;4995453;28;20022;-58
2022/09/15 12:22:11;;;;;;;20.95;5.70;;;28.40;64.10;;;;;;5013040;28;20514;-58
2022/09/15 12:24:39;;;;;;;17.75;4.82;;;28.40;74.50;;;;;;5014707;28;20026;-58
2022/09/15 12:27:14;;;;;;;14.98;5.78;;;28.30;69.30;;;;;;5015026;28;20096;-58
2022/09/15 12:29:50;;;;;;;19.80;6.10;;;28.40;71.20;;;;;;5014843;28;20036;-58
2022/09/15 12:32:28;;;;;;;12.02;5.18;;;28.40;72.40;;;;;;5014458;28;20472;-58
2022/09/15 12:34:57;;;;;;;20.70;7.93;;;28.50;69.60;;;;;;5014288;28;20476;-58
2022/09/15 12:37:24;;;;;;;27.23;7.55;;;28.40;66.20;;;;;;5014125;28;20097;-58
2022/09/15 12:39:51;;;;;;;14.88;5.07;;;28.50;63.30;;;;;;5012587;28;20100;-58
2022/09/15 12:42:44;;;;;;;13.00;5.22;;;28.40;58.60;;;;;;5014325;28;20041;-58
2022/09/15 12:45:23;;;;;;;13.40;5.07;;;28.50;57.60;;;;;;5014481;28;20499;-58
2022/09/15 12:47:55;;;;;;;16.13;4.70;;;28.70;55.10;;;;;;5014300;28;20488;-58
2022/09/15 12:50:26;;;;;;;13.23;3.67;;;28.90;55.00;;;;;;5014296;28;20034;-58
2022/09/15 12:53:12;;;;;;;9.40;3.03;;;29.20;52.00;;;;;;5014435;28;20034;-58
2022/09/15 12:55:49;;;;;;;13.15;3.70;;;29.30;52.40;;;;;;5014752;28;20037;-58
2022/09/15 12:58:18;;;;;;;7.65;2.63;;;29.40;51.50;;;;;;5014258;28;20049;-58
2022/09/15 13:00:45;;;;;;;10.97;3.37;;;29.40;50.70;;;;;;5013827;28;20536;-58
2022/09/15 13:03:54;;;;;;;11.43;3.20;;;29.30;51.90;;;;;;5014388;28;20267;-58
2022/09/15 13:06:32;;;;;;;11.90;2.97;;;29.50;52.50;;;;;;5014107;28;20022;-58
2022/09/15 13:09:04;;;;;;;8.57;3.20;;;29.30;50.20;;;;;;5009924;28;20373;-58